GABSGLRB

Guest
Details From GABS - Bamako Senou
To GLRB - MONROVIA ROBERTS INTL
Flight Number -
Tags generated
Created
Modified
Stats Distance 404 nm / 749 km
Max Altitude 34,000 ft / 10,363 m
Waypoints 6
Social Downloads 0
Likes 0
Share VATSIM

Download

Looking for another format? Having issues loading an existing format? Contact us
Advertisement - Login to hide

Notes

Basic altitude profile: - Ascent Rate: 2500ft/min - Ascent Speed: 250kts - Cruise Altitude: 35000ft - Cruise Speed: 420kts - Descent Rate: 1500ft/min - Descent Speed: 250kts Options: - Use NATs: yes - Use PACOTS: yes - Use low airways: yes - Use high airways: yes

Route

GABS MOPAL UG852 PONKA GLRB

ID Type Via Altitude Latitude Longitude Leg Dist Tot Dist Heading (true) Name
O GABS APT - 0 ft / 0 m 12.53354˚ -7.94994˚ - 0 nm - Bamako Senou
MOPAL FIX - 28,300 ft / 8,626 m 11.29639˚ -8.41972˚ 79 nm 79 nm 200° / 200° -
KIMPO FIX UG852 (AWY-HI) 34,000 ft / 10,363 m 10.28316˚ -8.79977˚ 64 nm 144 nm 200° / 200° -
NANAN FIX UG852 (AWY-HI) 34,000 ft / 10,363 m 9.05000˚ -9.28333˚ 79 nm 223 nm 201° / 201° -
PONKA FIX UG852 (AWY-HI) 24,000 ft / 7,315 m 7.86672˚ -9.73311˚ 75 nm 299 nm 201° / 201° -
O GLRB APT - 0 ft / 0 m 6.23379˚ -10.36231˚ 104 nm 404 nm 201° / 201° MONROVIA ROBERTS INTL

Altitude Profile

Advertisement - Login to hide

Weather


0- 5 10 15 20 25 30 35+ Temperature / ° C

Clouds and Precipitation
Forecast for 2017-12-11 18:00 UTC. Updated 16 minutes ago

Ground ~20,000 ft ~40,000 ft Winds

GABS

Details ICAO GABS (BKO)
Name Bamako Senou
Region Mali
Timezone Africa/Bamako (UTC+0.0)
Stats Elevation 1,246 ft / 380 m (AMSL)
Location 12.533544° -7.949943°
Runways 1
Magnetic Variation 4.162° W

METAR

GABS 111730Z 01004KT 8000 NSC 29/00 Q1012 NOSIG

Decode

TAF

TAF GABS 111100Z 1112/1218 04006KT 8000 NSC TEMPO 1210/1216 09010KT BECMG 1216/1218 20010KT

Decode

Departure Runways

ID Width Length Bearing (true) Bearing (mag) Surface Threshold Offset Overrun Length
06 148 ft / 45 m 8,888 ft / 2,709 m 56.51° 60.67° Asphalt 0 ft / 0 m 327 ft / 100 m
24 148 ft / 45 m 8,888 ft / 2,709 m 236.51° 240.67° Asphalt 0 ft / 0 m 327 ft / 100 m

GLRB

Details ICAO GLRB (ROB)
Name MONROVIA ROBERTS INTL
Region Liberia
Timezone Africa/Monrovia (UTC+0.0)
Stats Elevation 31 ft / 9 m (AMSL)
Location 6.233790° -10.362312°
Runways 1
Magnetic Variation 6.704° W

METAR

GLRB 111730Z 03003KT 4000 HZ NSC 29/23 Q1009

Decode

TAF

TAF TAF GLRB 110400Z 1106/1212 00000KT 8000 FEW012 TEMPO 1106/1110 02004KT 3000 BR BKN003 TEMPO 1111/1115 20010KT 9999 SCT018 BKN110

Decode

Destination Runways

ID Width Length Bearing (true) Bearing (mag) Surface Threshold Offset Overrun Length
04 150 ft / 46 m 11,029 ft / 3,362 m 30.94° 37.64° Asphalt 0 ft / 0 m 0 ft / 0 m
22 150 ft / 46 m 11,029 ft / 3,362 m 210.94° 217.64° Asphalt 1,200 ft / 366 m 0 ft / 0 m

Popular Alternatives